Terminal Aerodrome Forecast
Issued by NWS

Home | Current Version | Previous Version | Text Only | Print | Product List | Glossary On
Versions: 1 2 3 4 5 6 7 8 9 10 11 12 13 14 15 16 17 18 19 20 21 22 23 24 25 26 27
000
FTUS46 KSEW 050905 AAA
TAFSEA
TAF AMD
KSEA 050905Z 0509/0612 18012KT P6SM VCSH SCT015 BKN060
      TEMPO 0509/0512 BKN050 OVC110
     FM051200 16006KT P6SM -SHRASN OVC015
     FM051400 16005KT 4SM -SHSN BR OVC010
     FM051800 16005KT 4SM -SHRASN BR OVC015
     FM060300 02005KT 5SM -SN BR BKN010 OVC030=

USA.gov is the U.S. government's official web portal to all federal, state and local government web resources and services.